createdAt,value
2023-02-07T00:00:19.064Z,12.90
2023-02-07T00:01:50.869Z,13.30
2023-02-07T00:03:22.644Z,12.50
2023-02-07T00:04:54.479Z,12.90
2023-02-07T00:06:34.283Z,11.50
2023-02-07T00:08:07.641Z,13.10
2023-02-07T00:09:39.459Z,11.90
2023-02-07T00:11:16.589Z,13.20
2023-02-07T00:12:48.584Z,12.30
2023-02-07T00:14:20.313Z,13.50
2023-02-07T00:15:52.105Z,12.30
2023-02-07T00:17:23.908Z,12.60
2023-02-07T00:18:58.340Z,12.80
2023-02-07T00:20:31.601Z,13.00
2023-02-07T00:22:03.845Z,12.90
2023-02-07T00:23:38.317Z,13.20
2023-02-07T00:25:11.794Z,13.60
2023-02-07T00:26:44.044Z,13.50
2023-02-07T00:28:15.845Z,14.00
2023-02-07T00:29:47.700Z,13.10
2023-02-07T00:31:22.406Z,12.90
2023-02-07T00:32:54.289Z,14.20
2023-02-07T00:34:26.292Z,13.50
2023-02-07T00:36:00.865Z,13.10
2023-02-07T00:37:35.226Z,13.30
2023-02-07T00:39:15.729Z,13.70
2023-02-07T00:40:47.522Z,13.80
2023-02-07T00:42:19.283Z,13.30
2023-02-07T00:43:51.394Z,13.40
2023-02-07T00:45:23.186Z,13.40
2023-02-07T00:46:55.031Z,14.00
2023-02-07T00:48:28.862Z,13.70
2023-02-07T00:50:00.621Z,13.50
2023-02-07T00:51:33.503Z,14.60
2023-02-07T00:53:05.443Z,12.80
2023-02-07T00:54:38.727Z,13.40
2023-02-07T00:56:12.060Z,12.40
2023-02-07T00:57:43.835Z,12.20
2023-02-07T00:59:15.569Z,13.20
2023-02-07T01:00:48.031Z,12.30
2023-02-07T01:02:19.886Z,12.30
2023-02-07T01:03:51.698Z,14.40
2023-02-07T01:05:24.217Z,11.40
2023-02-07T01:06:56.006Z,11.50
2023-02-07T01:08:28.418Z,13.80
2023-02-07T01:10:00.213Z,13.90
2023-02-07T01:11:32.447Z,13.80
2023-02-07T01:13:04.232Z,14.20
2023-02-07T01:14:36.387Z,14.80
2023-02-07T01:16:08.294Z,13.90
2023-02-07T01:17:40.158Z,12.50
2023-02-07T01:19:12.524Z,13.50
2023-02-07T01:20:44.846Z,13.80
2023-02-07T01:22:16.560Z,13.70
2023-02-07T01:23:48.653Z,12.60
2023-02-07T01:25:20.426Z,12.70
2023-02-07T01:26:52.113Z,11.70
2023-02-07T01:28:23.917Z,12.30
2023-02-07T01:29:55.639Z,12.30
2023-02-07T01:31:28.169Z,13.50
2023-02-07T01:33:00.321Z,12.90
2023-02-07T01:34:32.142Z,13.00
2023-02-07T01:36:10.262Z,12.30
2023-02-07T01:37:41.983Z,11.30
2023-02-07T01:39:13.792Z,11.90
2023-02-07T01:40:45.587Z,14.60
2023-02-07T01:42:18.753Z,13.90
2023-02-07T01:44:07.946Z,14.10
2023-02-07T01:45:40.631Z,13.60
2023-02-07T01:47:19.293Z,12.80
2023-02-07T01:48:52.978Z,14.40
2023-02-07T01:50:26.482Z,11.80
2023-02-07T01:52:11.471Z,13.20
2023-02-07T01:53:43.334Z,10.90
2023-02-07T01:55:23.705Z,10.90
2023-02-07T01:57:00.239Z,10.90
2023-02-07T01:58:34.363Z,14.00
2023-02-07T02:00:08.760Z,13.70
2023-02-07T02:01:47.716Z,13.10
2023-02-07T02:03:19.609Z,13.40
2023-02-07T02:04:54.696Z,12.30
2023-02-07T02:06:31.637Z,12.90
2023-02-07T02:08:03.718Z,13.60
2023-02-07T02:09:37.730Z,13.50
2023-02-07T02:11:36.723Z,13.50
2023-02-07T02:13:33.076Z,13.80
2023-02-07T02:15:40.649Z,13.30
2023-02-07T02:17:42.601Z,12.80
2023-02-07T02:20:01.138Z,12.80
2023-02-07T02:22:10.542Z,12.30
2023-02-07T02:24:25.492Z,12.50
2023-02-07T02:26:31.552Z,13.10
2023-02-07T02:28:35.828Z,12.40
2023-02-07T02:30:47.092Z,11.90
2023-02-07T02:33:25.948Z,11.20
2023-02-07T02:35:32.798Z,8.20
2023-02-07T02:37:27.032Z,10.80
2023-02-07T02:39:28.069Z,11.60
2023-02-07T02:41:14.679Z,12.10
2023-02-07T02:42:58.912Z,11.70
2023-02-07T02:44:42.286Z,9.30
2023-02-07T02:46:35.255Z,9.10
2023-02-07T02:48:12.108Z,11.30
2023-02-07T02:49:44.851Z,11.30
2023-02-07T02:51:16.652Z,11.50
2023-02-07T02:52:50.937Z,11.80
2023-02-07T02:54:35.866Z,11.00
2023-02-07T02:56:32.946Z,12.30
2023-02-07T02:58:31.914Z,12.00
2023-02-07T03:00:37.004Z,12.30
2023-02-07T03:02:56.423Z,11.90
2023-02-07T03:05:02.515Z,12.10
2023-02-07T03:06:46.098Z,10.80
2023-02-07T03:09:00.457Z,12.50
2023-02-07T03:11:11.684Z,11.50
2023-02-07T03:13:34.064Z,11.10
2023-02-07T03:15:26.325Z,11.40
2023-02-07T03:17:14.059Z,11.70
2023-02-07T03:19:00.398Z,12.90
2023-02-07T03:20:56.955Z,11.80
2023-02-07T03:22:30.297Z,12.60
2023-02-07T03:24:10.496Z,13.40
2023-02-07T03:25:45.257Z,13.70
2023-02-07T03:27:21.697Z,13.80
2023-02-07T03:28:56.523Z,13.60
2023-02-07T03:30:34.397Z,13.40
2023-02-07T03:32:08.333Z,12.50
2023-02-07T03:33:42.027Z,14.20
2023-02-07T03:35:40.982Z,13.30
2023-02-07T03:37:36.703Z,12.80
2023-02-07T03:39:09.230Z,11.00
2023-02-07T03:40:47.804Z,12.60
2023-02-07T03:42:39.941Z,12.90
2023-02-07T03:44:16.160Z,13.00
2023-02-07T03:45:48.059Z,12.70
2023-02-07T03:47:21.888Z,12.40
2023-02-07T03:48:53.742Z,12.80
2023-02-07T03:50:25.703Z,12.40
2023-02-07T03:51:57.338Z,12.90
2023-02-07T03:53:29.234Z,12.90
2023-02-07T03:55:00.987Z,12.80
2023-02-07T03:56:32.740Z,12.90
2023-02-07T03:58:04.497Z,12.40
2023-02-07T03:59:36.167Z,11.90
2023-02-07T04:01:07.919Z,12.80
2023-02-07T04:02:40.748Z,12.20
2023-02-07T04:04:12.470Z,12.10
2023-02-07T04:05:46.187Z,11.10
2023-02-07T04:07:18.295Z,11.00
2023-02-07T04:08:50.011Z,10.90
2023-02-07T04:10:22.082Z,11.30
2023-02-07T04:11:54.469Z,11.20
2023-02-07T04:13:26.731Z,11.10
2023-02-07T04:15:03.528Z,12.30
2023-02-07T04:16:35.359Z,12.00
2023-02-07T04:18:07.096Z,11.80
2023-02-07T04:19:38.796Z,12.70
2023-02-07T04:21:10.531Z,11.80
2023-02-07T04:22:42.283Z,12.20
2023-02-07T04:24:14.461Z,12.10
2023-02-07T04:25:46.129Z,12.30
2023-02-07T04:27:19.563Z,11.10
2023-02-07T04:28:51.306Z,10.90
2023-02-07T04:30:22.990Z,11.80
2023-02-07T04:31:54.718Z,12.20
2023-02-07T04:33:26.899Z,13.10
2023-02-07T04:34:58.604Z,12.50
2023-02-07T04:36:31.123Z,10.50
2023-02-07T04:38:02.991Z,13.70
2023-02-07T04:39:34.759Z,12.60
2023-02-07T04:41:07.380Z,12.50
2023-02-07T04:42:39.141Z,11.80
2023-02-07T04:44:10.854Z,12.70
2023-02-07T04:45:42.560Z,13.20
2023-02-07T04:47:14.295Z,11.50
2023-02-07T04:48:46.089Z,11.80
2023-02-07T04:50:18.145Z,10.40
2023-02-07T04:51:49.894Z,11.20
2023-02-07T04:53:21.663Z,12.10
2023-02-07T04:54:53.729Z,12.10
2023-02-07T04:56:25.489Z,12.30
2023-02-07T04:57:57.174Z,13.00
2023-02-07T04:59:29.013Z,13.50
2023-02-07T05:01:00.780Z,13.30
2023-02-07T05:02:32.612Z,13.20
2023-02-07T05:04:04.533Z,12.90
2023-02-07T05:05:41.331Z,12.50
2023-02-07T05:07:13.046Z,12.50
2023-02-07T05:08:44.787Z,12.80
2023-02-07T05:10:16.585Z,12.40
2023-02-07T05:11:48.290Z,10.60
2023-02-07T05:13:20.937Z,11.80
2023-02-07T05:14:52.652Z,11.90
2023-02-07T05:16:24.338Z,11.60
2023-02-07T05:17:57.073Z,12.90
2023-02-07T05:19:28.939Z,13.00
2023-02-07T05:21:00.692Z,13.00
2023-02-07T05:22:32.568Z,13.90
2023-02-07T05:24:04.448Z,12.60
2023-02-07T05:25:36.532Z,13.90
2023-02-07T05:27:08.463Z,13.80
2023-02-07T05:28:40.203Z,13.60
2023-02-07T05:30:13.077Z,13.40
2023-02-07T05:32:05.258Z,12.70
2023-02-07T05:33:38.409Z,12.40
2023-02-07T05:35:10.103Z,12.60
2023-02-07T05:36:41.925Z,12.50
2023-02-07T05:38:17.621Z,13.10
2023-02-07T05:39:49.686Z,13.40
2023-02-07T05:41:21.599Z,12.70
2023-02-07T05:42:54.980Z,13.50
2023-02-07T05:44:27.175Z,13.40
2023-02-07T05:45:59.584Z,12.60
2023-02-07T05:47:31.387Z,12.60
2023-02-07T05:49:04.436Z,12.70
2023-02-07T05:50:36.339Z,11.20
2023-02-07T05:52:11.120Z,11.40
2023-02-07T05:53:42.877Z,12.50
2023-02-07T05:55:15.399Z,12.90
2023-02-07T05:56:47.257Z,11.60
2023-02-07T05:58:18.940Z,11.50
2023-02-07T05:59:50.694Z,11.80
2023-02-07T06:01:22.378Z,10.80
2023-02-07T06:02:54.257Z,11.30
2023-02-07T06:04:26.225Z,13.20
2023-02-07T06:05:58.077Z,12.80
2023-02-07T06:07:29.789Z,11.10
2023-02-07T06:09:01.756Z,12.40
2023-02-07T06:10:33.463Z,12.00
2023-02-07T06:12:05.703Z,11.60
2023-02-07T06:13:38.250Z,10.40
2023-02-07T06:15:10.625Z,12.30
2023-02-07T06:16:42.696Z,12.00
2023-02-07T06:18:14.746Z,11.20
2023-02-07T06:19:46.447Z,12.00
2023-02-07T06:21:18.253Z,13.40
2023-02-07T06:22:50.400Z,11.70
2023-02-07T06:24:22.472Z,13.20
2023-02-07T06:25:54.344Z,12.80
2023-02-07T06:27:26.098Z,13.60
2023-02-07T06:28:57.894Z,13.30
2023-02-07T06:30:29.795Z,13.80
2023-02-07T06:32:01.563Z,13.90
2023-02-07T06:33:33.307Z,14.00
2023-02-07T06:35:07.117Z,12.10
2023-02-07T06:36:38.909Z,13.60
2023-02-07T06:38:10.695Z,13.30
2023-02-07T06:39:42.472Z,14.70
2023-02-07T06:41:14.354Z,14.40
2023-02-07T06:42:46.467Z,13.90
2023-02-07T06:44:18.195Z,14.50
2023-02-07T06:45:49.933Z,15.00
2023-02-07T06:47:21.730Z,13.10
2023-02-07T06:48:53.531Z,13.50
2023-02-07T06:50:25.448Z,13.80
2023-02-07T06:51:57.311Z,13.20
2023-02-07T06:53:30.023Z,14.30
2023-02-07T06:55:01.885Z,13.40
2023-02-07T06:56:33.709Z,13.40
2023-02-07T06:58:07.376Z,12.80
2023-02-07T06:59:39.163Z,13.40
2023-02-07T07:01:11.044Z,13.90
2023-02-07T07:02:42.760Z,13.70
2023-02-07T07:04:14.590Z,13.30
2023-02-07T07:05:46.329Z,12.20
2023-02-07T07:07:18.116Z,11.90
2023-02-07T07:08:51.628Z,12.40
2023-02-07T07:10:24.266Z,13.90
2023-02-07T07:11:56.176Z,11.80
2023-02-07T07:13:27.914Z,14.10
2023-02-07T07:14:59.772Z,15.30
2023-02-07T07:16:31.583Z,14.60
2023-02-07T07:18:03.605Z,15.10
2023-02-07T07:19:35.371Z,14.00
2023-02-07T07:21:08.110Z,14.50
2023-02-07T07:22:39.932Z,14.20
2023-02-07T07:24:11.687Z,13.40
2023-02-07T07:25:43.467Z,14.40
2023-02-07T07:27:15.167Z,14.40
2023-02-07T07:28:47.146Z,14.50
2023-02-07T07:30:19.272Z,14.00
2023-02-07T07:31:51.138Z,14.10
2023-02-07T07:33:23.008Z,13.80
2023-02-07T07:34:54.902Z,13.80
2023-02-07T07:36:26.792Z,13.40
2023-02-07T07:37:58.528Z,14.30
2023-02-07T07:39:30.686Z,13.20
2023-02-07T07:41:02.545Z,13.40
2023-02-07T07:42:35.488Z,13.30
2023-02-07T07:44:14.684Z,11.60
2023-02-07T07:45:52.217Z,13.40
2023-02-07T07:47:25.319Z,11.90
2023-02-07T07:48:57.144Z,13.70
2023-02-07T07:50:28.966Z,14.60
2023-02-07T07:52:00.899Z,14.90
2023-02-07T07:53:33.013Z,14.90
2023-02-07T07:55:05.603Z,15.40
2023-02-07T07:56:37.435Z,13.70
2023-02-07T07:58:09.224Z,14.00
2023-02-07T07:59:40.991Z,14.90
2023-02-07T08:01:12.785Z,13.10
2023-02-07T08:02:44.557Z,14.30
2023-02-07T08:04:16.315Z,13.40
2023-02-07T08:05:48.664Z,14.80
2023-02-07T08:07:20.448Z,14.30
2023-02-07T08:08:52.208Z,13.40
2023-02-07T08:10:23.925Z,15.40
2023-02-07T08:11:55.656Z,14.00
2023-02-07T08:13:29.551Z,15.20
2023-02-07T08:15:01.759Z,16.20
2023-02-07T08:16:33.740Z,15.80
2023-02-07T08:18:06.195Z,15.20
2023-02-07T08:19:38.407Z,15.60
2023-02-07T08:21:11.337Z,15.90
2023-02-07T08:22:43.155Z,14.80
2023-02-07T08:24:15.451Z,16.30
2023-02-07T08:25:47.630Z,17.20
2023-02-07T08:27:19.433Z,17.90
2023-02-07T08:28:52.430Z,18.50
2023-02-07T08:30:24.380Z,16.40
2023-02-07T08:31:56.203Z,15.90
2023-02-07T08:33:30.237Z,15.30
2023-02-07T08:35:02.290Z,15.70
2023-02-07T08:36:34.079Z,14.80
2023-02-07T08:38:05.955Z,14.50
2023-02-07T08:39:37.744Z,14.00
2023-02-07T08:41:09.529Z,13.80
2023-02-07T08:42:41.617Z,12.90
2023-02-07T08:44:13.444Z,13.00
2023-02-07T08:45:49.271Z,12.50
2023-02-07T08:47:21.818Z,12.70
2023-02-07T08:48:53.616Z,12.50
2023-02-07T08:50:26.781Z,14.20
2023-02-07T08:51:58.573Z,13.50
2023-02-07T08:53:30.350Z,13.30
2023-02-07T08:55:02.140Z,13.40
2023-02-07T08:56:34.088Z,13.30
2023-02-07T08:58:05.877Z,13.50
2023-02-07T08:59:37.705Z,13.20
2023-02-07T09:01:11.415Z,13.30
2023-02-07T09:02:43.791Z,13.30
2023-02-07T09:04:15.564Z,12.20
2023-02-07T09:05:47.341Z,11.70
2023-02-07T09:07:20.208Z,11.90
2023-02-07T09:08:52.678Z,11.20
2023-02-07T09:10:24.665Z,11.60
2023-02-07T09:11:56.472Z,11.50
2023-02-07T09:13:28.288Z,12.20
2023-02-07T09:15:00.130Z,11.50
2023-02-07T09:16:32.356Z,11.60
2023-02-07T09:18:04.372Z,12.10
2023-02-07T09:19:37.031Z,11.90
2023-02-07T09:21:08.910Z,11.60
2023-02-07T09:22:59.519Z,10.80
2023-02-07T09:24:32.494Z,10.90
2023-02-07T09:26:07.683Z,9.40
2023-02-07T09:27:39.540Z,10.70
2023-02-07T09:29:14.571Z,10.60
2023-02-07T09:30:48.396Z,9.20
2023-02-07T09:32:20.423Z,9.40
2023-02-07T09:33:52.190Z,8.80
2023-02-07T09:35:24.399Z,8.90
2023-02-07T09:36:56.216Z,9.90
2023-02-07T09:38:28.420Z,8.60
2023-02-07T09:40:00.556Z,8.70
2023-02-07T09:41:48.058Z,8.80
2023-02-07T09:43:37.999Z,8.30
2023-02-07T09:45:20.887Z,8.40
2023-02-07T09:47:18.807Z,7.90
2023-02-07T09:48:54.787Z,7.40
2023-02-07T09:50:33.962Z,7.90
2023-02-07T09:52:14.963Z,7.10
2023-02-07T09:53:58.838Z,6.60
2023-02-07T09:55:53.128Z,6.50
2023-02-07T09:57:50.350Z,7.10
2023-02-07T09:59:49.664Z,6.50
2023-02-07T10:01:49.523Z,5.70
2023-02-07T10:03:24.454Z,5.90
2023-02-07T10:05:05.170Z,5.90
2023-02-07T10:06:43.434Z,6.20
2023-02-07T10:08:18.811Z,5.70
2023-02-07T10:09:50.639Z,6.00
2023-02-07T10:11:55.754Z,5.60
2023-02-07T10:13:58.134Z,5.30
2023-02-07T10:15:56.902Z,4.40
2023-02-07T10:18:16.613Z,5.40
2023-02-07T10:20:02.088Z,5.30
2023-02-07T10:22:09.917Z,5.60
2023-02-07T10:24:07.503Z,5.40
2023-02-07T10:26:04.367Z,5.50
2023-02-07T10:28:27.770Z,5.80
2023-02-07T10:30:23.344Z,5.50
2023-02-07T10:32:03.823Z,5.80
2023-02-07T10:33:43.504Z,5.50
2023-02-07T10:35:26.563Z,6.10
2023-02-07T10:36:58.766Z,5.90
2023-02-07T10:39:09.513Z,5.90
2023-02-07T10:40:52.852Z,5.00
2023-02-07T10:42:25.013Z,5.30
2023-02-07T10:43:56.917Z,6.20
2023-02-07T10:45:28.777Z,5.30
2023-02-07T10:47:04.040Z,5.30
2023-02-07T10:48:38.244Z,4.70
2023-02-07T10:50:29.404Z,4.70
2023-02-07T10:52:35.530Z,4.10
2023-02-07T10:54:16.849Z,3.10
2023-02-07T10:55:49.106Z,4.20
2023-02-07T10:57:22.637Z,3.90
2023-02-07T10:58:58.265Z,3.70
2023-02-07T11:00:33.625Z,3.70
2023-02-07T11:02:37.663Z,3.50
2023-02-07T11:04:42.616Z,3.60
2023-02-07T11:06:28.088Z,3.50
2023-02-07T11:08:19.477Z,4.10
2023-02-07T11:09:51.590Z,3.80
2023-02-07T11:11:33.218Z,4.30
2023-02-07T11:13:14.015Z,4.10
2023-02-07T11:15:03.469Z,3.80
2023-02-07T11:16:35.751Z,4.50
2023-02-07T11:18:08.268Z,4.30
2023-02-07T11:19:40.183Z,4.10
2023-02-07T11:21:29.948Z,4.60
2023-02-07T11:23:11.197Z,4.90
2023-02-07T11:24:43.935Z,4.40
2023-02-07T11:26:20.218Z,4.50
2023-02-07T11:27:53.842Z,5.00
2023-02-07T11:29:26.567Z,4.80
2023-02-07T11:31:05.666Z,4.60
2023-02-07T11:32:39.007Z,4.40
2023-02-07T11:34:41.626Z,5.10
2023-02-07T11:36:31.520Z,4.70
2023-02-07T11:38:13.738Z,4.60
2023-02-07T11:39:48.522Z,4.80
2023-02-07T11:41:32.727Z,4.70
2023-02-07T11:43:15.789Z,5.10
2023-02-07T11:44:50.291Z,4.50
2023-02-07T11:46:30.760Z,4.50
2023-02-07T11:48:04.772Z,4.70
2023-02-07T11:49:49.374Z,4.50
2023-02-07T11:51:22.291Z,4.60
2023-02-07T11:52:57.852Z,4.30
2023-02-07T11:54:32.607Z,4.50
2023-02-07T11:56:05.554Z,4.70
2023-02-07T11:57:39.281Z,5.00
2023-02-07T11:59:26.675Z,4.70
2023-02-07T12:01:04.262Z,4.30
2023-02-07T12:02:36.298Z,3.20
2023-02-07T12:04:16.922Z,3.80
2023-02-07T12:05:54.439Z,3.70
2023-02-07T12:07:37.653Z,4.40
2023-02-07T12:09:53.226Z,4.30
2023-02-07T12:11:34.063Z,4.30
2023-02-07T12:13:22.988Z,4.40
2023-02-07T12:15:04.013Z,4.10
2023-02-07T12:16:46.524Z,4.30
2023-02-07T12:18:43.187Z,4.30
2023-02-07T12:20:27.541Z,5.30
2023-02-07T12:22:23.561Z,3.60
2023-02-07T12:24:14.169Z,3.90
2023-02-07T12:26:03.486Z,3.90
2023-02-07T12:27:42.776Z,3.70
2023-02-07T12:29:40.926Z,3.80
2023-02-07T12:31:28.021Z,4.00
2023-02-07T12:33:12.681Z,3.80
2023-02-07T12:35:13.365Z,3.70
2023-02-07T12:36:55.215Z,3.40
2023-02-07T12:38:41.196Z,3.50
2023-02-07T12:40:22.845Z,3.70
2023-02-07T12:42:16.735Z,3.70
2023-02-07T12:44:06.424Z,3.30
2023-02-07T12:45:42.138Z,3.20
2023-02-07T12:47:49.463Z,3.40
2023-02-07T12:49:48.647Z,3.30
2023-02-07T12:51:46.310Z,3.20
2023-02-07T12:53:41.484Z,3.30
2023-02-07T12:55:51.907Z,2.90
2023-02-07T12:58:32.635Z,3.40
2023-02-07T13:00:33.386Z,3.00
2023-02-07T13:02:47.492Z,3.10
2023-02-07T13:04:34.211Z,3.40
2023-02-07T13:06:26.558Z,3.00
2023-02-07T13:08:18.309Z,2.90
2023-02-07T13:10:21.756Z,2.80
2023-02-07T13:12:11.752Z,3.60
2023-02-07T13:14:03.055Z,3.50
2023-02-07T13:15:43.097Z,3.10
2023-02-07T13:17:51.921Z,3.20
2023-02-07T13:19:53.399Z,3.10
2023-02-07T13:22:08.847Z,3.30
2023-02-07T13:23:46.190Z,3.10
2023-02-07T13:25:34.484Z,3.20
2023-02-07T13:27:17.450Z,3.20
2023-02-07T13:28:56.631Z,3.00
2023-02-07T13:30:30.391Z,3.30
2023-02-07T13:32:12.689Z,3.90
2023-02-07T13:33:49.041Z,3.50
2023-02-07T13:35:27.998Z,2.80
2023-02-07T13:37:11.270Z,3.40
2023-02-07T13:38:56.337Z,3.80
2023-02-07T13:40:47.550Z,3.10
2023-02-07T13:42:40.739Z,3.80
2023-02-07T13:44:32.799Z,3.10
2023-02-07T13:46:55.944Z,2.70
2023-02-07T13:49:00.220Z,3.00
2023-02-07T13:51:02.580Z,3.30
2023-02-07T13:53:11.657Z,3.90
2023-02-07T13:55:01.647Z,3.90
2023-02-07T13:56:54.896Z,4.00
2023-02-07T13:58:54.273Z,3.90
2023-02-07T14:00:52.069Z,3.70
2023-02-07T14:02:23.971Z,3.90
2023-02-07T14:04:12.291Z,3.90
2023-02-07T14:05:44.217Z,4.50
2023-02-07T14:07:35.536Z,4.60
2023-02-07T14:09:33.247Z,3.80
2023-02-07T14:11:32.557Z,4.20
2023-02-07T14:13:05.512Z,3.30
2023-02-07T14:14:41.343Z,3.70
2023-02-07T14:16:53.167Z,3.80
2023-02-07T14:18:31.435Z,4.30
2023-02-07T14:20:05.946Z,3.90
2023-02-07T14:21:42.406Z,3.00
2023-02-07T14:23:18.105Z,4.30
2023-02-07T14:24:58.753Z,4.10
2023-02-07T14:26:39.313Z,3.60
2023-02-07T14:28:36.102Z,4.00
2023-02-07T14:30:30.894Z,3.20
2023-02-07T14:32:33.173Z,3.80
2023-02-07T14:34:15.279Z,3.40
2023-02-07T14:36:09.823Z,3.60
2023-02-07T14:37:55.574Z,3.70
2023-02-07T14:39:32.361Z,3.70
2023-02-07T14:41:13.891Z,3.50
2023-02-07T14:43:08.653Z,3.40
2023-02-07T14:44:43.960Z,3.50
2023-02-07T14:46:29.837Z,2.90
2023-02-07T14:48:06.252Z,3.50
2023-02-07T14:49:47.213Z,3.50
2023-02-07T14:51:59.571Z,3.60
2023-02-07T14:53:31.845Z,3.60
2023-02-07T14:55:18.378Z,3.80
2023-02-07T14:57:07.892Z,3.90
2023-02-07T14:58:46.670Z,4.00
2023-02-07T15:00:18.332Z,3.80
2023-02-07T15:01:50.125Z,3.60
2023-02-07T15:03:22.155Z,3.50
2023-02-07T15:04:54.223Z,3.90
2023-02-07T15:06:32.727Z,4.10
2023-02-07T15:08:09.766Z,3.60
2023-02-07T15:09:41.821Z,3.50
2023-02-07T15:11:14.601Z,3.70
2023-02-07T15:12:47.038Z,3.50
2023-02-07T15:14:32.416Z,3.70
2023-02-07T15:16:13.119Z,4.40
2023-02-07T15:17:45.143Z,3.70
2023-02-07T15:19:40.800Z,3.90
2023-02-07T15:21:21.077Z,4.00
2023-02-07T15:22:56.147Z,3.80
2023-02-07T15:24:51.441Z,3.90
2023-02-07T15:26:23.906Z,4.10
2023-02-07T15:28:26.679Z,3.20
2023-02-07T15:30:04.079Z,3.30
2023-02-07T15:31:41.224Z,3.50
2023-02-07T15:33:19.773Z,3.40
2023-02-07T15:34:51.552Z,3.80
2023-02-07T15:36:40.587Z,3.60
2023-02-07T15:38:22.450Z,3.80
2023-02-07T15:39:57.307Z,4.00
2023-02-07T15:41:29.748Z,4.00
2023-02-07T15:43:02.477Z,4.10
2023-02-07T15:44:48.937Z,4.60
2023-02-07T15:46:21.266Z,4.80
2023-02-07T15:48:03.807Z,4.90
2023-02-07T15:49:40.946Z,4.20
2023-02-07T15:51:15.322Z,4.20
2023-02-07T15:52:53.736Z,4.40
2023-02-07T15:54:27.261Z,4.30
2023-02-07T15:55:59.760Z,3.90
2023-02-07T15:57:41.490Z,4.30
2023-02-07T15:59:22.410Z,4.10
2023-02-07T16:01:05.705Z,4.30
2023-02-07T16:02:49.886Z,4.10
2023-02-07T16:04:26.919Z,3.90
2023-02-07T16:06:33.410Z,3.90
2023-02-07T16:08:31.857Z,4.40
2023-02-07T16:10:40.828Z,3.30
2023-02-07T16:12:44.288Z,3.70
2023-02-07T16:14:25.562Z,4.20
2023-02-07T16:16:08.453Z,4.30
2023-02-07T16:17:44.423Z,4.60
2023-02-07T16:19:28.128Z,5.60
2023-02-07T16:20:59.918Z,5.80
2023-02-07T16:22:32.356Z,5.30
2023-02-07T16:24:14.901Z,6.00
2023-02-07T16:25:46.623Z,5.80
2023-02-07T16:27:27.477Z,6.10
2023-02-07T16:28:59.295Z,9.20
2023-02-07T16:30:37.750Z,6.60
2023-02-07T16:32:12.129Z,5.70
2023-02-07T16:33:43.844Z,6.40
2023-02-07T16:35:19.661Z,6.80
2023-02-07T16:36:55.112Z,6.70
2023-02-07T16:38:27.008Z,6.20
2023-02-07T16:39:58.906Z,6.80
2023-02-07T16:41:34.460Z,6.30
2023-02-07T16:43:08.208Z,6.40
2023-02-07T16:44:40.121Z,7.00
2023-02-07T16:46:11.897Z,5.80
2023-02-07T16:47:43.880Z,6.40
2023-02-07T16:49:26.717Z,5.70
2023-02-07T16:50:59.220Z,5.90
2023-02-07T16:52:30.926Z,5.90
2023-02-07T16:54:02.609Z,5.80
2023-02-07T16:55:36.977Z,6.60
2023-02-07T16:57:11.685Z,6.20
2023-02-07T16:58:43.463Z,6.10
2023-02-07T17:00:24.575Z,6.10
2023-02-07T17:01:56.449Z,6.20
2023-02-07T17:03:28.779Z,6.20
2023-02-07T17:05:02.894Z,5.60
2023-02-07T17:06:34.683Z,5.80
2023-02-07T17:08:06.388Z,5.40
2023-02-07T17:09:38.117Z,5.10
2023-02-07T17:11:26.161Z,5.50
2023-02-07T17:12:58.005Z,5.60
2023-02-07T17:14:29.794Z,5.50
2023-02-07T17:16:01.636Z,5.90
2023-02-07T17:17:33.588Z,5.80
2023-02-07T17:19:20.410Z,5.70
2023-02-07T17:20:52.439Z,6.00
2023-02-07T17:22:24.219Z,5.60
2023-02-07T17:23:55.942Z,4.50
2023-02-07T17:25:30.948Z,5.30
2023-02-07T17:27:02.792Z,5.70
2023-02-07T17:28:34.506Z,5.20
2023-02-07T17:30:15.363Z,6.30
2023-02-07T17:31:47.392Z,5.30
2023-02-07T17:33:19.259Z,6.00
2023-02-07T17:34:50.977Z,5.30
2023-02-07T17:36:22.937Z,5.60
2023-02-07T17:37:54.742Z,6.20
2023-02-07T17:39:27.233Z,6.10
2023-02-07T17:40:58.929Z,5.50
2023-02-07T17:42:30.647Z,5.70
2023-02-07T17:44:02.386Z,6.00
2023-02-07T17:45:37.110Z,6.80
2023-02-07T17:47:09.453Z,6.70
2023-02-07T17:48:41.143Z,5.70
2023-02-07T17:50:19.280Z,6.50
2023-02-07T17:51:51.450Z,6.60
2023-02-07T17:53:23.393Z,6.40
2023-02-07T17:54:55.250Z,5.70
2023-02-07T17:56:30.883Z,6.30
2023-02-07T17:58:05.951Z,6.20
2023-02-07T17:59:37.703Z,6.70
2023-02-07T18:01:09.419Z,5.90
2023-02-07T18:02:41.426Z,6.40
2023-02-07T18:04:15.119Z,6.00
2023-02-07T18:05:47.516Z,5.90
2023-02-07T18:07:19.329Z,5.40
2023-02-07T18:08:51.597Z,6.20
2023-02-07T18:10:27.152Z,6.30
2023-02-07T18:12:01.623Z,5.20
2023-02-07T18:13:34.379Z,5.80
2023-02-07T18:15:09.085Z,5.40
2023-02-07T18:16:41.583Z,5.70
2023-02-07T18:18:14.030Z,5.70
2023-02-07T18:19:45.733Z,5.90
2023-02-07T18:21:18.433Z,6.10
2023-02-07T18:22:52.296Z,6.40
2023-02-07T18:24:24.117Z,5.70
2023-02-07T18:25:55.900Z,6.40
2023-02-07T18:27:27.606Z,6.20
2023-02-07T18:29:00.268Z,6.50
2023-02-07T18:30:32.752Z,6.00
2023-02-07T18:32:04.706Z,6.20
2023-02-07T18:33:36.716Z,6.40
2023-02-07T18:35:09.355Z,6.30
2023-02-07T18:36:41.260Z,7.40
2023-02-07T18:38:13.241Z,6.70
2023-02-07T18:39:45.001Z,7.50
2023-02-07T18:41:21.905Z,8.00
2023-02-07T18:42:55.167Z,8.10
2023-02-07T18:44:27.455Z,8.10
2023-02-07T18:45:59.248Z,8.20
2023-02-07T18:47:34.220Z,8.60
2023-02-07T18:49:06.184Z,8.20
2023-02-07T18:50:44.235Z,7.50
2023-02-07T18:52:16.844Z,8.10
2023-02-07T18:53:50.438Z,6.70
2023-02-07T18:55:22.269Z,7.00
2023-02-07T18:56:54.430Z,6.10
2023-02-07T18:58:26.218Z,7.60
2023-02-07T18:59:58.026Z,9.00
2023-02-07T19:01:30.591Z,8.50
2023-02-07T19:03:02.440Z,8.50
2023-02-07T19:04:34.561Z,8.90
2023-02-07T19:06:08.405Z,9.40
2023-02-07T19:07:40.321Z,10.20
2023-02-07T19:09:13.685Z,9.50
2023-02-07T19:11:03.622Z,9.20
2023-02-07T19:12:35.383Z,9.20
2023-02-07T19:14:32.830Z,9.10
2023-02-07T19:16:12.124Z,9.20
2023-02-07T19:17:43.862Z,8.40
2023-02-07T19:19:15.726Z,7.60
2023-02-07T19:20:47.813Z,8.30
2023-02-07T19:22:30.060Z,8.20
2023-02-07T19:24:14.447Z,8.90
2023-02-07T19:25:48.493Z,9.20
2023-02-07T19:27:20.197Z,9.30
2023-02-07T19:28:53.168Z,9.00
2023-02-07T19:30:25.100Z,9.20
2023-02-07T19:32:08.921Z,8.90
2023-02-07T19:33:41.070Z,9.40
2023-02-07T19:35:12.829Z,9.30
2023-02-07T19:36:44.750Z,8.30
2023-02-07T19:38:16.873Z,10.10
2023-02-07T19:39:49.145Z,9.90
2023-02-07T19:41:26.220Z,10.30
2023-02-07T19:42:57.979Z,11.20
2023-02-07T19:44:29.838Z,10.60
2023-02-07T19:46:02.707Z,10.70
2023-02-07T19:47:34.457Z,11.00
2023-02-07T19:49:06.763Z,9.50
2023-02-07T19:50:38.648Z,10.70
2023-02-07T19:52:10.625Z,10.60
2023-02-07T19:53:45.349Z,11.30
2023-02-07T19:55:17.147Z,12.00
2023-02-07T19:56:50.179Z,13.50
2023-02-07T19:58:22.452Z,13.50
2023-02-07T19:59:54.209Z,13.20
2023-02-07T20:01:26.313Z,12.20
2023-02-07T20:02:58.739Z,12.90
2023-02-07T20:04:30.505Z,13.00
2023-02-07T20:06:05.725Z,12.90
2023-02-07T20:07:37.920Z,12.50
2023-02-07T20:09:09.695Z,13.50
2023-02-07T20:10:45.837Z,11.90
2023-02-07T20:12:17.991Z,12.00
2023-02-07T20:13:54.822Z,11.80
2023-02-07T20:15:26.700Z,13.00
2023-02-07T20:16:58.444Z,13.60
2023-02-07T20:18:30.764Z,12.60
2023-02-07T20:20:02.793Z,13.80
2023-02-07T20:21:36.988Z,13.30
2023-02-07T20:23:09.506Z,13.10
2023-02-07T20:24:41.231Z,12.40
2023-02-07T20:26:17.977Z,11.60
2023-02-07T20:27:49.761Z,11.60
2023-02-07T20:29:23.074Z,13.00
2023-02-07T20:30:55.093Z,14.40
2023-02-07T20:32:26.792Z,13.80
2023-02-07T20:33:59.268Z,13.70
2023-02-07T20:35:31.008Z,14.10
2023-02-07T20:37:02.761Z,13.50
2023-02-07T20:38:35.234Z,13.80
2023-02-07T20:40:07.233Z,12.70
2023-02-07T20:41:41.555Z,13.30
2023-02-07T20:43:13.295Z,13.10
2023-02-07T20:44:45.302Z,12.70
2023-02-07T20:46:17.254Z,13.30
2023-02-07T20:47:49.385Z,13.60
2023-02-07T20:49:27.312Z,13.10
2023-02-07T20:50:59.993Z,12.30
2023-02-07T20:52:32.013Z,12.60
2023-02-07T20:54:07.008Z,12.70
2023-02-07T20:55:38.695Z,12.90
2023-02-07T20:57:10.590Z,13.50
2023-02-07T20:58:42.262Z,14.00
2023-02-07T21:00:14.990Z,13.00
2023-02-07T21:01:47.475Z,13.30
2023-02-07T21:03:19.198Z,13.70
2023-02-07T21:04:50.917Z,12.80
2023-02-07T21:06:24.328Z,13.70
2023-02-07T21:07:56.258Z,14.30
2023-02-07T21:09:28.334Z,13.40
2023-02-07T21:11:00.996Z,14.30
2023-02-07T21:12:32.660Z,14.00
2023-02-07T21:14:12.993Z,13.30
2023-02-07T21:16:01.398Z,13.60
2023-02-07T21:17:36.697Z,13.90
2023-02-07T21:19:08.998Z,14.90
2023-02-07T21:20:41.080Z,15.00
2023-02-07T21:22:12.979Z,13.50